sensor_id;sensor_type;location;lat;lon;timestamp;temperature;humidity
15596;DHT22;7898;48.658;9.068;2023-02-22T00:00:11;3.70;99.90
15596;DHT22;7898;48.658;9.068;2023-02-22T00:02:48;3.70;99.90
15596;DHT22;7898;48.658;9.068;2023-02-22T00:05:15;3.70;99.90
15596;DHT22;7898;48.658;9.068;2023-02-22T00:07:45;3.70;99.90
15596;DHT22;7898;48.658;9.068;2023-02-22T00:10:15;3.70;99.90
15596;DHT22;7898;48.658;9.068;2023-02-22T00:12:46;3.50;99.90
15596;DHT22;7898;48.658;9.068;2023-02-22T00:15:14;3.40;99.90
15596;DHT22;7898;48.658;9.068;2023-02-22T00:17:42;3.40;99.90
15596;DHT22;7898;48.658;9.068;2023-02-22T00:20:09;3.30;99.90
15596;DHT22;7898;48.658;9.068;2023-02-22T00:22:39;3.30;99.90
15596;DHT22;7898;48.658;9.068;2023-02-22T00:25:06;3.30;99.90
15596;DHT22;7898;48.658;9.068;2023-02-22T00:27:34;3.30;99.90
15596;DHT22;7898;48.658;9.068;2023-02-22T00:30:02;3.50;99.90
15596;DHT22;7898;48.658;9.068;2023-02-22T00:32:29;3.50;99.90
15596;DHT22;7898;48.658;9.068;2023-02-22T00:34:55;3.50;99.90
15596;DHT22;7898;48.658;9.068;2023-02-22T00:37:23;3.50;99.90
15596;DHT22;7898;48.658;9.068;2023-02-22T00:39:50;3.50;99.90
15596;DHT22;7898;48.658;9.068;2023-02-22T00:42:18;3.50;99.90
15596;DHT22;7898;48.658;9.068;2023-02-22T00:44:46;3.40;99.90
15596;DHT22;7898;48.658;9.068;2023-02-22T00:47:13;3.40;99.90
15596;DHT22;7898;48.658;9.068;2023-02-22T00:49:40;3.30;99.90
15596;DHT22;7898;48.658;9.068;2023-02-22T00:52:06;3.20;99.90
15596;DHT22;7898;48.658;9.068;2023-02-22T00:54:34;3.10;99.90
15596;DHT22;7898;48.658;9.068;2023-02-22T00:57:01;3.10;99.90
15596;DHT22;7898;48.658;9.068;2023-02-22T00:59:29;3.00;99.90
15596;DHT22;7898;48.658;9.068;2023-02-22T01:01:58;2.90;99.90
15596;DHT22;7898;48.658;9.068;2023-02-22T01:04:24;2.90;99.90
15596;DHT22;7898;48.658;9.068;2023-02-22T01:06:51;2.90;99.90
15596;DHT22;7898;48.658;9.068;2023-02-22T01:09:20;3.00;99.90
15596;DHT22;7898;48.658;9.068;2023-02-22T01:11:47;2.80;99.90
15596;DHT22;7898;48.658;9.068;2023-02-22T01:14:14;2.80;99.90
15596;DHT22;7898;48.658;9.068;2023-02-22T01:16:42;2.90;99.90
15596;DHT22;7898;48.658;9.068;2023-02-22T01:19:10;2.90;99.90
15596;DHT22;7898;48.658;9.068;2023-02-22T01:21:39;3.00;99.90
15596;DHT22;7898;48.658;9.068;2023-02-22T01:24:06;2.90;99.90
15596;DHT22;7898;48.658;9.068;2023-02-22T01:26:33;3.00;99.90
15596;DHT22;7898;48.658;9.068;2023-02-22T01:29:00;3.00;99.90
15596;DHT22;7898;48.658;9.068;2023-02-22T01:31:27;3.00;99.90
15596;DHT22;7898;48.658;9.068;2023-02-22T01:33:54;3.00;99.90
15596;DHT22;7898;48.658;9.068;2023-02-22T01:36:22;3.00;99.90
15596;DHT22;7898;48.658;9.068;2023-02-22T01:38:49;2.90;99.90
15596;DHT22;7898;48.658;9.068;2023-02-22T01:41:16;3.00;99.90
15596;DHT22;7898;48.658;9.068;2023-02-22T01:43:43;2.90;99.90
15596;DHT22;7898;48.658;9.068;2023-02-22T01:46:20;2.80;99.90
15596;DHT22;7898;48.658;9.068;2023-02-22T01:48:51;2.80;99.90
15596;DHT22;7898;48.658;9.068;2023-02-22T01:51:22;2.70;99.90
15596;DHT22;7898;48.658;9.068;2023-02-22T01:53:53;2.70;99.90
15596;DHT22;7898;48.658;9.068;2023-02-22T01:56:21;2.60;99.90
15596;DHT22;7898;48.658;9.068;2023-02-22T01:58:53;2.60;99.90
15596;DHT22;7898;48.658;9.068;2023-02-22T02:01:22;2.70;99.90
15596;DHT22;7898;48.658;9.068;2023-02-22T02:03:51;2.70;99.90
15596;DHT22;7898;48.658;9.068;2023-02-22T02:06:24;2.70;99.90
15596;DHT22;7898;48.658;9.068;2023-02-22T02:08:56;2.60;99.90
15596;DHT22;7898;48.658;9.068;2023-02-22T02:11:25;2.60;99.90
15596;DHT22;7898;48.658;9.068;2023-02-22T02:13:56;2.60;99.90
15596;DHT22;7898;48.658;9.068;2023-02-22T02:16:24;2.60;99.90
15596;DHT22;7898;48.658;9.068;2023-02-22T02:18:52;2.60;99.90
15596;DHT22;7898;48.658;9.068;2023-02-22T02:24:48;2.60;99.90
15596;DHT22;7898;48.658;9.068;2023-02-22T02:27:18;2.50;99.90
15596;DHT22;7898;48.658;9.068;2023-02-22T02:32:56;2.50;99.90
15596;DHT22;7898;48.658;9.068;2023-02-22T02:35:34;2.50;99.90
15596;DHT22;7898;48.658;9.068;2023-02-22T02:38:11;2.50;99.90
15596;DHT22;7898;48.658;9.068;2023-02-22T02:40:46;2.60;99.90
15596;DHT22;7898;48.658;9.068;2023-02-22T02:43:19;2.60;99.90
15596;DHT22;7898;48.658;9.068;2023-02-22T02:45:51;2.60;99.90
15596;DHT22;7898;48.658;9.068;2023-02-22T02:48:24;2.60;99.90
15596;DHT22;7898;48.658;9.068;2023-02-22T02:50:52;2.60;99.90
15596;DHT22;7898;48.658;9.068;2023-02-22T02:53:25;2.60;99.90
15596;DHT22;7898;48.658;9.068;2023-02-22T02:55:53;2.50;99.90
15596;DHT22;7898;48.658;9.068;2023-02-22T02:58:22;2.40;99.90
15596;DHT22;7898;48.658;9.068;2023-02-22T03:00:51;2.30;99.90
15596;DHT22;7898;48.658;9.068;2023-02-22T03:03:46;2.30;99.90
15596;DHT22;7898;48.658;9.068;2023-02-22T03:09:29;2.20;99.90
15596;DHT22;7898;48.658;9.068;2023-02-22T03:12:08;2.20;99.90
15596;DHT22;7898;48.658;9.068;2023-02-22T03:14:41;2.20;99.90
15596;DHT22;7898;48.658;9.068;2023-02-22T03:17:15;2.20;99.90
15596;DHT22;7898;48.658;9.068;2023-02-22T03:19:49;2.20;99.90
15596;DHT22;7898;48.658;9.068;2023-02-22T03:22:21;2.40;99.90
15596;DHT22;7898;48.658;9.068;2023-02-22T03:24:54;2.20;99.90
15596;DHT22;7898;48.658;9.068;2023-02-22T03:27:27;2.20;99.90
15596;DHT22;7898;48.658;9.068;2023-02-22T03:30:01;2.10;99.90
15596;DHT22;7898;48.658;9.068;2023-02-22T03:32:31;2.00;99.90
15596;DHT22;7898;48.658;9.068;2023-02-22T03:35:05;2.00;99.90
15596;DHT22;7898;48.658;9.068;2023-02-22T03:37:37;2.00;99.90
15596;DHT22;7898;48.658;9.068;2023-02-22T03:40:07;2.00;99.90
15596;DHT22;7898;48.658;9.068;2023-02-22T03:42:40;1.90;99.90
15596;DHT22;7898;48.658;9.068;2023-02-22T03:45:10;1.90;99.90
15596;DHT22;7898;48.658;9.068;2023-02-22T03:47:41;1.90;99.90
15596;DHT22;7898;48.658;9.068;2023-02-22T03:50:13;1.90;99.90
15596;DHT22;7898;48.658;9.068;2023-02-22T03:52:41;1.80;99.90
15596;DHT22;7898;48.658;9.068;2023-02-22T03:55:10;1.80;99.90
15596;DHT22;7898;48.658;9.068;2023-02-22T03:57:40;1.80;99.90
15596;DHT22;7898;48.658;9.068;2023-02-22T04:00:10;1.80;99.90
15596;DHT22;7898;48.658;9.068;2023-02-22T04:02:40;1.70;99.90
15596;DHT22;7898;48.658;9.068;2023-02-22T04:05:07;2.40;99.90
15596;DHT22;7898;48.658;9.068;2023-02-22T04:07:35;1.70;99.90
15596;DHT22;7898;48.658;9.068;2023-02-22T04:10:03;1.70;99.90
15596;DHT22;7898;48.658;9.068;2023-02-22T04:12:33;1.60;99.90
15596;DHT22;7898;48.658;9.068;2023-02-22T04:15:00;1.60;99.90
15596;DHT22;7898;48.658;9.068;2023-02-22T04:17:27;2.30;99.90
15596;DHT22;7898;48.658;9.068;2023-02-22T04:19:54;2.00;99.90
15596;DHT22;7898;48.658;9.068;2023-02-22T04:22:21;1.60;99.90
15596;DHT22;7898;48.658;9.068;2023-02-22T04:24:49;1.60;99.90
15596;DHT22;7898;48.658;9.068;2023-02-22T04:27:16;1.60;99.90
15596;DHT22;7898;48.658;9.068;2023-02-22T04:29:43;1.60;99.90
15596;DHT22;7898;48.658;9.068;2023-02-22T04:32:10;1.60;99.90
15596;DHT22;7898;48.658;9.068;2023-02-22T04:34:37;1.50;99.90
15596;DHT22;7898;48.658;9.068;2023-02-22T04:37:04;1.50;99.90
15596;DHT22;7898;48.658;9.068;2023-02-22T04:39:32;1.50;99.90
15596;DHT22;7898;48.658;9.068;2023-02-22T04:42:00;1.50;99.90
15596;DHT22;7898;48.658;9.068;2023-02-22T04:44:27;1.60;99.90
15596;DHT22;7898;48.658;9.068;2023-02-22T04:46:54;1.50;99.90
15596;DHT22;7898;48.658;9.068;2023-02-22T04:49:22;1.50;99.90
15596;DHT22;7898;48.658;9.068;2023-02-22T04:51:49;1.30;99.90
15596;DHT22;7898;48.658;9.068;2023-02-22T04:54:16;1.30;99.90
15596;DHT22;7898;48.658;9.068;2023-02-22T04:56:43;1.20;99.90
15596;DHT22;7898;48.658;9.068;2023-02-22T04:59:11;1.20;99.90
15596;DHT22;7898;48.658;9.068;2023-02-22T05:01:38;1.20;99.90
15596;DHT22;7898;48.658;9.068;2023-02-22T05:04:06;1.30;99.90
15596;DHT22;7898;48.658;9.068;2023-02-22T05:06:33;1.50;99.90
15596;DHT22;7898;48.658;9.068;2023-02-22T05:09:00;1.30;99.90
15596;DHT22;7898;48.658;9.068;2023-02-22T05:11:27;1.20;99.90
15596;DHT22;7898;48.658;9.068;2023-02-22T05:13:54;1.90;99.90
15596;DHT22;7898;48.658;9.068;2023-02-22T05:16:23;1.10;99.90
15596;DHT22;7898;48.658;9.068;2023-02-22T05:18:49;1.10;99.90
15596;DHT22;7898;48.658;9.068;2023-02-22T05:21:16;1.20;99.90
15596;DHT22;7898;48.658;9.068;2023-02-22T05:23:43;1.30;99.90
15596;DHT22;7898;48.658;9.068;2023-02-22T05:26:10;1.40;99.90
15596;DHT22;7898;48.658;9.068;2023-02-22T05:28:37;1.40;99.90
15596;DHT22;7898;48.658;9.068;2023-02-22T05:31:05;1.30;99.90
15596;DHT22;7898;48.658;9.068;2023-02-22T05:33:34;1.30;99.90
15596;DHT22;7898;48.658;9.068;2023-02-22T05:36:01;1.30;99.90
15596;DHT22;7898;48.658;9.068;2023-02-22T05:38:28;1.40;99.90
15596;DHT22;7898;48.658;9.068;2023-02-22T05:40:54;1.40;99.90
15596;DHT22;7898;48.658;9.068;2023-02-22T05:43:22;1.40;99.90
15596;DHT22;7898;48.658;9.068;2023-02-22T05:45:49;1.30;99.90
15596;DHT22;7898;48.658;9.068;2023-02-22T05:48:16;1.30;99.90
15596;DHT22;7898;48.658;9.068;2023-02-22T05:50:44;1.40;99.90
15596;DHT22;7898;48.658;9.068;2023-02-22T05:53:11;1.30;99.90
15596;DHT22;7898;48.658;9.068;2023-02-22T05:55:38;1.60;99.90
15596;DHT22;7898;48.658;9.068;2023-02-22T05:58:05;1.20;99.90
15596;DHT22;7898;48.658;9.068;2023-02-22T06:00:33;1.20;99.90
15596;DHT22;7898;48.658;9.068;2023-02-22T06:03:01;1.20;99.90
15596;DHT22;7898;48.658;9.068;2023-02-22T06:05:29;1.20;99.90
15596;DHT22;7898;48.658;9.068;2023-02-22T06:07:58;1.70;99.90
15596;DHT22;7898;48.658;9.068;2023-02-22T06:10:25;1.30;99.90
15596;DHT22;7898;48.658;9.068;2023-02-22T06:12:53;1.20;99.90
15596;DHT22;7898;48.658;9.068;2023-02-22T06:15:22;1.20;99.90
15596;DHT22;7898;48.658;9.068;2023-02-22T06:17:50;1.10;99.90
15596;DHT22;7898;48.658;9.068;2023-02-22T06:20:19;1.10;99.90
15596;DHT22;7898;48.658;9.068;2023-02-22T06:22:47;1.20;99.90
15596;DHT22;7898;48.658;9.068;2023-02-22T06:25:17;1.20;99.90
15596;DHT22;7898;48.658;9.068;2023-02-22T06:27:45;1.30;99.90
15596;DHT22;7898;48.658;9.068;2023-02-22T06:30:14;1.40;99.90
15596;DHT22;7898;48.658;9.068;2023-02-22T06:32:41;1.50;99.90
15596;DHT22;7898;48.658;9.068;2023-02-22T06:35:08;1.60;99.90
15596;DHT22;7898;48.658;9.068;2023-02-22T06:37:35;1.90;99.90
15596;DHT22;7898;48.658;9.068;2023-02-22T06:40:03;2.30;99.90
15596;DHT22;7898;48.658;9.068;2023-02-22T06:42:31;2.70;99.90
15596;DHT22;7898;48.658;9.068;2023-02-22T06:44:58;3.10;99.90
15596;DHT22;7898;48.658;9.068;2023-02-22T06:47:25;3.30;99.90
15596;DHT22;7898;48.658;9.068;2023-02-22T06:49:54;3.60;99.90
15596;DHT22;7898;48.658;9.068;2023-02-22T06:52:22;3.90;99.90
15596;DHT22;7898;48.658;9.068;2023-02-22T06:54:49;4.50;99.90
15596;DHT22;7898;48.658;9.068;2023-02-22T06:57:16;4.50;99.90
15596;DHT22;7898;48.658;9.068;2023-02-22T06:59:45;4.80;99.90
15596;DHT22;7898;48.658;9.068;2023-02-22T07:02:13;5.30;99.90
15596;DHT22;7898;48.658;9.068;2023-02-22T07:04:45;5.60;99.90
15596;DHT22;7898;48.658;9.068;2023-02-22T07:07:12;5.80;99.90
15596;DHT22;7898;48.658;9.068;2023-02-22T07:09:39;6.00;99.90
15596;DHT22;7898;48.658;9.068;2023-02-22T07:12:06;6.20;99.90
15596;DHT22;7898;48.658;9.068;2023-02-22T07:14:33;6.10;99.90
15596;DHT22;7898;48.658;9.068;2023-02-22T07:17:02;5.90;99.90
15596;DHT22;7898;48.658;9.068;2023-02-22T07:19:28;6.00;99.90
15596;DHT22;7898;48.658;9.068;2023-02-22T07:21:55;5.90;99.90
15596;DHT22;7898;48.658;9.068;2023-02-22T07:24:24;5.60;99.90
15596;DHT22;7898;48.658;9.068;2023-02-22T07:26:53;5.70;99.90
15596;DHT22;7898;48.658;9.068;2023-02-22T07:29:19;5.70;99.90
15596;DHT22;7898;48.658;9.068;2023-02-22T07:31:48;5.80;99.90
15596;DHT22;7898;48.658;9.068;2023-02-22T07:34:16;5.70;99.90
15596;DHT22;7898;48.658;9.068;2023-02-22T07:36:43;5.80;99.90
15596;DHT22;7898;48.658;9.068;2023-02-22T07:39:10;5.70;99.90
15596;DHT22;7898;48.658;9.068;2023-02-22T07:41:37;5.70;99.90
15596;DHT22;7898;48.658;9.068;2023-02-22T07:44:04;5.80;99.90
15596;DHT22;7898;48.658;9.068;2023-02-22T07:46:31;6.00;99.90
15596;DHT22;7898;48.658;9.068;2023-02-22T07:48:58;6.40;99.90
15596;DHT22;7898;48.658;9.068;2023-02-22T07:51:26;7.00;99.90
15596;DHT22;7898;48.658;9.068;2023-02-22T07:53:53;7.80;99.90
15596;DHT22;7898;48.658;9.068;2023-02-22T07:56:20;8.40;99.90
15596;DHT22;7898;48.658;9.068;2023-02-22T07:58:47;9.00;99.90
15596;DHT22;7898;48.658;9.068;2023-02-22T08:01:14;9.50;99.90
15596;DHT22;7898;48.658;9.068;2023-02-22T08:03:41;9.90;99.90
15596;DHT22;7898;48.658;9.068;2023-02-22T08:06:08;10.30;99.90
15596;DHT22;7898;48.658;9.068;2023-02-22T08:08:36;10.30;99.90
15596;DHT22;7898;48.658;9.068;2023-02-22T08:11:03;10.90;99.90
15596;DHT22;7898;48.658;9.068;2023-02-22T08:13:30;11.40;99.90
15596;DHT22;7898;48.658;9.068;2023-02-22T08:15:57;11.80;99.90
15596;DHT22;7898;48.658;9.068;2023-02-22T08:18:24;12.10;99.90
15596;DHT22;7898;48.658;9.068;2023-02-22T08:20:52;12.00;99.90
15596;DHT22;7898;48.658;9.068;2023-02-22T08:23:21;12.30;99.90
15596;DHT22;7898;48.658;9.068;2023-02-22T08:25:51;12.80;99.90
15596;DHT22;7898;48.658;9.068;2023-02-22T08:28:20;13.50;99.90
15596;DHT22;7898;48.658;9.068;2023-02-22T08:30:48;14.00;99.90
15596;DHT22;7898;48.658;9.068;2023-02-22T08:33:16;14.50;99.90
15596;DHT22;7898;48.658;9.068;2023-02-22T08:35:44;14.80;99.90
15596;DHT22;7898;48.658;9.068;2023-02-22T08:38:18;15.40;99.90
15596;DHT22;7898;48.658;9.068;2023-02-22T08:40:47;15.70;99.90
15596;DHT22;7898;48.658;9.068;2023-02-22T08:43:16;16.30;99.90
15596;DHT22;7898;48.658;9.068;2023-02-22T08:45:43;17.00;99.90
15596;DHT22;7898;48.658;9.068;2023-02-22T08:48:11;17.50;99.90
15596;DHT22;7898;48.658;9.068;2023-02-22T08:50:39;17.60;99.90
15596;DHT22;7898;48.658;9.068;2023-02-22T08:53:08;17.90;99.90
15596;DHT22;7898;48.658;9.068;2023-02-22T08:55:36;18.00;99.90
15596;DHT22;7898;48.658;9.068;2023-02-22T08:58:05;18.40;99.90
15596;DHT22;7898;48.658;9.068;2023-02-22T09:00:36;19.00;99.90
15596;DHT22;7898;48.658;9.068;2023-02-22T09:03:04;19.30;99.90
15596;DHT22;7898;48.658;9.068;2023-02-22T09:05:31;19.60;99.90
15596;DHT22;7898;48.658;9.068;2023-02-22T09:07:59;19.80;99.90
15596;DHT22;7898;48.658;9.068;2023-02-22T09:10:28;20.10;99.90
15596;DHT22;7898;48.658;9.068;2023-02-22T09:12:56;20.60;99.90
15596;DHT22;7898;48.658;9.068;2023-02-22T09:15:25;20.40;99.90
15596;DHT22;7898;48.658;9.068;2023-02-22T09:17:54;19.90;99.90
15596;DHT22;7898;48.658;9.068;2023-02-22T09:20:22;19.20;99.90
15596;DHT22;7898;48.658;9.068;2023-02-22T09:22:50;18.50;99.90
15596;DHT22;7898;48.658;9.068;2023-02-22T09:25:18;18.40;99.90
15596;DHT22;7898;48.658;9.068;2023-02-22T09:27:46;18.20;99.90
15596;DHT22;7898;48.658;9.068;2023-02-22T09:30:19;18.00;99.90
15596;DHT22;7898;48.658;9.068;2023-02-22T09:32:49;18.00;99.90
15596;DHT22;7898;48.658;9.068;2023-02-22T09:35:18;18.00;99.90
15596;DHT22;7898;48.658;9.068;2023-02-22T09:37:45;17.90;99.90
15596;DHT22;7898;48.658;9.068;2023-02-22T09:40:16;17.80;99.90
15596;DHT22;7898;48.658;9.068;2023-02-22T09:42:58;18.00;99.90
15596;DHT22;7898;48.658;9.068;2023-02-22T09:45:31;18.30;99.90
15596;DHT22;7898;48.658;9.068;2023-02-22T09:48:04;18.70;99.90
15596;DHT22;7898;48.658;9.068;2023-02-22T09:50:37;19.00;99.90
15596;DHT22;7898;48.658;9.068;2023-02-22T09:53:14;19.20;99.90
15596;DHT22;7898;48.658;9.068;2023-02-22T09:55:49;19.30;99.90
15596;DHT22;7898;48.658;9.068;2023-02-22T09:58:21;19.60;99.70
15596;DHT22;7898;48.658;9.068;2023-02-22T10:00:54;19.60;99.90
15596;DHT22;7898;48.658;9.068;2023-02-22T10:03:28;19.80;99.80
15596;DHT22;7898;48.658;9.068;2023-02-22T10:06:01;20.00;98.80
15596;DHT22;7898;48.658;9.068;2023-02-22T10:08:31;19.90;99.00
15596;DHT22;7898;48.658;9.068;2023-02-22T10:11:08;19.90;98.90
15596;DHT22;7898;48.658;9.068;2023-02-22T10:13:41;19.90;99.10
15596;DHT22;7898;48.658;9.068;2023-02-22T10:16:19;20.10;98.50
15596;DHT22;7898;48.658;9.068;2023-02-22T10:19:14;20.10;98.50
15596;DHT22;7898;48.658;9.068;2023-02-22T10:22:03;19.90;98.50
15596;DHT22;7898;48.658;9.068;2023-02-22T10:24:43;19.90;98.70
15596;DHT22;7898;48.658;9.068;2023-02-22T10:27:16;20.00;98.30
15596;DHT22;7898;48.658;9.068;2023-02-22T10:29:45;19.90;98.20
15596;DHT22;7898;48.658;9.068;2023-02-22T10:32:17;19.90;98.00
15596;DHT22;7898;48.658;9.068;2023-02-22T10:34:48;19.70;97.80
15596;DHT22;7898;48.658;9.068;2023-02-22T10:37:23;19.40;98.10
15596;DHT22;7898;48.658;9.068;2023-02-22T10:39:56;19.20;98.90
15596;DHT22;7898;48.658;9.068;2023-02-22T10:42:26;19.20;99.20
15596;DHT22;7898;48.658;9.068;2023-02-22T10:44:53;19.00;98.30
15596;DHT22;7898;48.658;9.068;2023-02-22T10:47:20;18.60;98.00
15596;DHT22;7898;48.658;9.068;2023-02-22T10:49:51;18.30;98.40
15596;DHT22;7898;48.658;9.068;2023-02-22T10:52:24;18.10;98.40
15596;DHT22;7898;48.658;9.068;2023-02-22T10:54:53;17.80;99.50
15596;DHT22;7898;48.658;9.068;2023-02-22T10:57:24;17.40;99.10
15596;DHT22;7898;48.658;9.068;2023-02-22T10:59:51;17.30;99.40
15596;DHT22;7898;48.658;9.068;2023-02-22T11:02:24;17.00;99.40
15596;DHT22;7898;48.658;9.068;2023-02-22T11:04:54;16.90;99.70
15596;DHT22;7898;48.658;9.068;2023-02-22T11:07:25;16.80;99.90
15596;DHT22;7898;48.658;9.068;2023-02-22T11:09:54;16.70;99.80
15596;DHT22;7898;48.658;9.068;2023-02-22T11:12:27;16.60;99.90
15596;DHT22;7898;48.658;9.068;2023-02-22T11:14:55;16.70;99.90
15596;DHT22;7898;48.658;9.068;2023-02-22T11:17:29;16.80;99.90
15596;DHT22;7898;48.658;9.068;2023-02-22T11:19:56;16.90;99.90
15596;DHT22;7898;48.658;9.068;2023-02-22T11:22:28;17.10;99.90
15596;DHT22;7898;48.658;9.068;2023-02-22T11:25:00;17.40;99.50
15596;DHT22;7898;48.658;9.068;2023-02-22T11:27:32;17.40;99.00
15596;DHT22;7898;48.658;9.068;2023-02-22T11:30:25;17.30;99.50
15596;DHT22;7898;48.658;9.068;2023-02-22T11:32:55;17.20;99.90
15596;DHT22;7898;48.658;9.068;2023-02-22T11:35:33;17.00;99.90
15596;DHT22;7898;48.658;9.068;2023-02-22T11:38:16;16.80;99.90
15596;DHT22;7898;48.658;9.068;2023-02-22T11:40:47;16.90;99.90
15596;DHT22;7898;48.658;9.068;2023-02-22T11:43:29;16.90;99.90
15596;DHT22;7898;48.658;9.068;2023-02-22T11:45:59;16.80;99.90
15596;DHT22;7898;48.658;9.068;2023-02-22T11:48:29;16.60;99.90
15596;DHT22;7898;48.658;9.068;2023-02-22T11:51:18;16.40;99.90
15596;DHT22;7898;48.658;9.068;2023-02-22T11:54:18;16.30;99.90
15596;DHT22;7898;48.658;9.068;2023-02-22T11:57:03;15.90;99.90
15596;DHT22;7898;48.658;9.068;2023-02-22T11:59:37;15.90;99.90
15596;DHT22;7898;48.658;9.068;2023-02-22T12:02:27;15.80;99.90
15596;DHT22;7898;48.658;9.068;2023-02-22T12:05:14;15.80;99.90
15596;DHT22;7898;48.658;9.068;2023-02-22T12:07:57;15.80;99.90
15596;DHT22;7898;48.658;9.068;2023-02-22T12:10:40;16.10;99.90
15596;DHT22;7898;48.658;9.068;2023-02-22T12:13:24;16.30;99.90
15596;DHT22;7898;48.658;9.068;2023-02-22T12:16:02;16.60;99.90
15596;DHT22;7898;48.658;9.068;2023-02-22T12:18:38;16.80;99.90
15596;DHT22;7898;48.658;9.068;2023-02-22T12:21:12;16.90;99.90
15596;DHT22;7898;48.658;9.068;2023-02-22T12:23:44;17.00;99.90
15596;DHT22;7898;48.658;9.068;2023-02-22T12:26:19;16.90;99.90
15596;DHT22;7898;48.658;9.068;2023-02-22T12:28:53;16.80;99.90
15596;DHT22;7898;48.658;9.068;2023-02-22T12:31:28;16.80;99.90
15596;DHT22;7898;48.658;9.068;2023-02-22T12:34:02;16.50;99.90
15596;DHT22;7898;48.658;9.068;2023-02-22T12:36:35;16.40;99.90
15596;DHT22;7898;48.658;9.068;2023-02-22T12:39:21;16.30;99.90
15596;DHT22;7898;48.658;9.068;2023-02-22T12:41:54;16.20;99.90
15596;DHT22;7898;48.658;9.068;2023-02-22T12:44:24;16.30;99.90
15596;DHT22;7898;48.658;9.068;2023-02-22T12:46:54;16.30;99.90
15596;DHT22;7898;48.658;9.068;2023-02-22T12:49:29;16.30;99.90
15596;DHT22;7898;48.658;9.068;2023-02-22T12:52:02;16.40;99.90
15596;DHT22;7898;48.658;9.068;2023-02-22T12:54:40;16.70;99.90
15596;DHT22;7898;48.658;9.068;2023-02-22T12:57:16;16.90;99.90
15596;DHT22;7898;48.658;9.068;2023-02-22T12:59:48;17.30;99.90
15596;DHT22;7898;48.658;9.068;2023-02-22T13:02:21;17.40;99.90
15596;DHT22;7898;48.658;9.068;2023-02-22T13:04:50;17.60;99.90
15596;DHT22;7898;48.658;9.068;2023-02-22T13:07:28;17.50;99.90
15596;DHT22;7898;48.658;9.068;2023-02-22T13:10:18;17.50;99.90
15596;DHT22;7898;48.658;9.068;2023-02-22T13:12:54;17.50;99.90
15596;DHT22;7898;48.658;9.068;2023-02-22T13:15:29;17.80;99.90
15596;DHT22;7898;48.658;9.068;2023-02-22T13:18:04;18.10;99.90
15596;DHT22;7898;48.658;9.068;2023-02-22T13:20:38;18.30;99.90
15596;DHT22;7898;48.658;9.068;2023-02-22T13:23:10;18.40;99.90
15596;DHT22;7898;48.658;9.068;2023-02-22T13:25:44;18.20;99.90
15596;DHT22;7898;48.658;9.068;2023-02-22T13:28:32;17.40;99.90
15596;DHT22;7898;48.658;9.068;2023-02-22T13:34:10;17.10;99.90
15596;DHT22;7898;48.658;9.068;2023-02-22T13:36:52;17.10;99.90
15596;DHT22;7898;48.658;9.068;2023-02-22T13:39:48;17.10;99.90
15596;DHT22;7898;48.658;9.068;2023-02-22T13:42:42;16.80;99.90
15596;DHT22;7898;48.658;9.068;2023-02-22T13:45:54;16.80;99.90
15596;DHT22;7898;48.658;9.068;2023-02-22T13:51:45;16.70;99.90
15596;DHT22;7898;48.658;9.068;2023-02-22T13:54:19;16.90;99.90
15596;DHT22;7898;48.658;9.068;2023-02-22T13:56:49;17.10;99.90
15596;DHT22;7898;48.658;9.068;2023-02-22T13:59:23;17.30;99.90
15596;DHT22;7898;48.658;9.068;2023-02-22T14:01:52;17.30;99.90
15596;DHT22;7898;48.658;9.068;2023-02-22T14:04:34;17.10;99.90
15596;DHT22;7898;48.658;9.068;2023-02-22T14:07:03;16.80;99.90
15596;DHT22;7898;48.658;9.068;2023-02-22T14:09:43;16.60;99.90
15596;DHT22;7898;48.658;9.068;2023-02-22T14:12:49;16.40;99.90
15596;DHT22;7898;48.658;9.068;2023-02-22T14:15:17;16.10;99.90
15596;DHT22;7898;48.658;9.068;2023-02-22T14:17:48;16.00;99.90
15596;DHT22;7898;48.658;9.068;2023-02-22T14:20:24;15.90;99.90
15596;DHT22;7898;48.658;9.068;2023-02-22T14:25:50;15.80;99.90
15596;DHT22;7898;48.658;9.068;2023-02-22T14:28:38;15.70;99.90
15596;DHT22;7898;48.658;9.068;2023-02-22T14:31:08;15.60;99.90
15596;DHT22;7898;48.658;9.068;2023-02-22T14:33:52;15.60;99.90
15596;DHT22;7898;48.658;9.068;2023-02-22T14:36:20;15.70;99.90
15596;DHT22;7898;48.658;9.068;2023-02-22T14:38:49;16.00;99.90
15596;DHT22;7898;48.658;9.068;2023-02-22T14:41:21;16.20;99.90
15596;DHT22;7898;48.658;9.068;2023-02-22T14:43:53;16.70;99.90
15596;DHT22;7898;48.658;9.068;2023-02-22T14:46:24;17.00;99.90
15596;DHT22;7898;48.658;9.068;2023-02-22T14:48:58;17.30;99.90
15596;DHT22;7898;48.658;9.068;2023-02-22T14:51:29;17.40;99.90
15596;DHT22;7898;48.658;9.068;2023-02-22T14:54:02;17.60;99.90
15596;DHT22;7898;48.658;9.068;2023-02-22T14:56:35;17.60;99.90
15596;DHT22;7898;48.658;9.068;2023-02-22T14:59:14;17.50;99.90
15596;DHT22;7898;48.658;9.068;2023-02-22T15:01:42;17.30;99.90
15596;DHT22;7898;48.658;9.068;2023-02-22T15:04:20;17.30;99.90
15596;DHT22;7898;48.658;9.068;2023-02-22T15:06:48;17.10;99.90
15596;DHT22;7898;48.658;9.068;2023-02-22T15:09:17;17.00;99.90
15596;DHT22;7898;48.658;9.068;2023-02-22T15:11:50;16.80;99.90
15596;DHT22;7898;48.658;9.068;2023-02-22T15:14:20;16.60;99.90
15596;DHT22;7898;48.658;9.068;2023-02-22T15:16:50;16.80;99.90
15596;DHT22;7898;48.658;9.068;2023-02-22T15:19:22;17.20;99.90
15596;DHT22;7898;48.658;9.068;2023-02-22T15:21:52;17.40;99.90
15596;DHT22;7898;48.658;9.068;2023-02-22T15:24:23;17.50;99.90
15596;DHT22;7898;48.658;9.068;2023-02-22T15:26:50;17.60;99.90
15596;DHT22;7898;48.658;9.068;2023-02-22T15:29:21;17.40;99.90
15596;DHT22;7898;48.658;9.068;2023-02-22T15:31:50;17.00;99.90
15596;DHT22;7898;48.658;9.068;2023-02-22T15:34:20;16.50;99.90
15596;DHT22;7898;48.658;9.068;2023-02-22T15:36:50;15.90;99.90
15596;DHT22;7898;48.658;9.068;2023-02-22T15:39:22;15.40;99.90
15596;DHT22;7898;48.658;9.068;2023-02-22T15:42:05;15.00;99.90
15596;DHT22;7898;48.658;9.068;2023-02-22T15:44:39;14.60;99.90
15596;DHT22;7898;48.658;9.068;2023-02-22T15:47:10;14.30;99.90
15596;DHT22;7898;48.658;9.068;2023-02-22T15:49:38;14.10;99.90
15596;DHT22;7898;48.658;9.068;2023-02-22T15:52:17;13.90;99.90
15596;DHT22;7898;48.658;9.068;2023-02-22T15:54:46;13.70;99.90
15596;DHT22;7898;48.658;9.068;2023-02-22T15:57:15;13.60;99.90
15596;DHT22;7898;48.658;9.068;2023-02-22T15:59:48;13.40;99.90
15596;DHT22;7898;48.658;9.068;2023-02-22T16:02:31;13.30;99.90
15596;DHT22;7898;48.658;9.068;2023-02-22T16:05:01;13.20;99.90
15596;DHT22;7898;48.658;9.068;2023-02-22T16:07:28;13.10;99.90
15596;DHT22;7898;48.658;9.068;2023-02-22T16:09:56;13.00;99.90
15596;DHT22;7898;48.658;9.068;2023-02-22T16:12:25;12.90;99.90
15596;DHT22;7898;48.658;9.068;2023-02-22T16:14:54;12.90;99.90
15596;DHT22;7898;48.658;9.068;2023-02-22T16:17:28;12.80;99.90
15596;DHT22;7898;48.658;9.068;2023-02-22T16:19:57;12.70;99.90
15596;DHT22;7898;48.658;9.068;2023-02-22T16:22:28;12.60;99.90
15596;DHT22;7898;48.658;9.068;2023-02-22T16:25:12;12.50;99.90
15596;DHT22;7898;48.658;9.068;2023-02-22T16:27:42;12.50;99.90
15596;DHT22;7898;48.658;9.068;2023-02-22T16:30:25;12.40;99.90
15596;DHT22;7898;48.658;9.068;2023-02-22T16:32:54;12.30;99.90
15596;DHT22;7898;48.658;9.068;2023-02-22T16:35:23;12.20;99.90
15596;DHT22;7898;48.658;9.068;2023-02-22T16:37:56;12.20;99.90